sensor_id;sensor_type;location;lat;lon;timestamp;pressure;altitude;pressure_sealevel;temperature;humidity
61506;BME280;47366;51.916;4.574;2022-11-13T00:01:20;102849.22;;;8.01;89.71
61506;BME280;47366;51.916;4.574;2022-11-13T00:03:46;102848.34;;;7.99;89.57
61506;BME280;47366;51.916;4.574;2022-11-13T00:06:12;102844.81;;;7.95;89.45
61506;BME280;47366;51.916;4.574;2022-11-13T00:08:38;102845.66;;;7.97;89.99
61506;BME280;47366;51.916;4.574;2022-11-13T00:11:10;102849.25;;;7.98;90.25
61506;BME280;47366;51.916;4.574;2022-11-13T00:13:36;102835.81;;;7.96;89.99
61506;BME280;47366;51.916;4.574;2022-11-13T00:16:07;102842.09;;;7.97;89.93
61506;BME280;47366;51.916;4.574;2022-11-13T00:18:34;102833.13;;;7.95;89.74
61506;BME280;47366;51.916;4.574;2022-11-13T00:21:15;102825.06;;;7.93;90.11
61506;BME280;47366;51.916;4.574;2022-11-13T00:23:41;102816.06;;;7.93;89.81
61506;BME280;47366;51.916;4.574;2022-11-13T00:26:18;102811.59;;;7.92;89.94
61506;BME280;47366;51.916;4.574;2022-11-13T00:28:44;102809.88;;;7.87;89.67
61506;BME280;47366;51.916;4.574;2022-11-13T00:31:12;102803.63;;;7.84;90.02
61506;BME280;47366;51.916;4.574;2022-11-13T00:33:37;102808.19;;;7.82;90.02
61506;BME280;47366;51.916;4.574;2022-11-13T00:36:09;102803.69;;;7.81;90.02
61506;BME280;47366;51.916;4.574;2022-11-13T00:38:35;102800.13;;;7.79;90.08
61506;BME280;47366;51.916;4.574;2022-11-13T00:41:01;102797.44;;;7.79;89.78
61506;BME280;47366;51.916;4.574;2022-11-13T00:43:27;102792.97;;;7.78;89.94
61506;BME280;47366;51.916;4.574;2022-11-13T00:45:53;102790.28;;;7.78;90.02
61506;BME280;47366;51.916;4.574;2022-11-13T00:48:18;102783.09;;;7.77;90.14
61506;BME280;47366;51.916;4.574;2022-11-13T00:50:44;102785.75;;;7.78;90.13
61506;BME280;47366;51.916;4.574;2022-11-13T00:53:10;102784.84;;;7.79;90.22
61506;BME280;47366;51.916;4.574;2022-11-13T00:55:35;102789.31;;;7.82;90.11
61506;BME280;47366;51.916;4.574;2022-11-13T00:58:00;102776.75;;;7.79;90.06
61506;BME280;47366;51.916;4.574;2022-11-13T01:00:25;102772.22;;;7.81;90.24
61506;BME280;47366;51.916;4.574;2022-11-13T01:02:51;102769.50;;;7.83;90.26
61506;BME280;47366;51.916;4.574;2022-11-13T01:05:16;102768.63;;;7.81;90.35
61506;BME280;47366;51.916;4.574;2022-11-13T01:07:41;102766.00;;;7.78;90.32
61506;BME280;47366;51.916;4.574;2022-11-13T01:10:07;102764.16;;;7.80;90.31
61506;BME280;47366;51.916;4.574;2022-11-13T01:12:32;102761.50;;;7.77;90.25
61506;BME280;47366;51.916;4.574;2022-11-13T01:14:58;102758.84;;;7.75;90.29
61506;BME280;47366;51.916;4.574;2022-11-13T01:17:23;102758.00;;;7.73;89.98
61506;BME280;47366;51.916;4.574;2022-11-13T01:19:48;102761.63;;;7.71;90.21
61506;BME280;47366;51.916;4.574;2022-11-13T01:22:14;102759.00;;;7.68;90.17
61506;BME280;47366;51.916;4.574;2022-11-13T01:24:39;102756.31;;;7.68;90.40
61506;BME280;47366;51.916;4.574;2022-11-13T01:27:05;102758.06;;;7.69;90.39
61506;BME280;47366;51.916;4.574;2022-11-13T01:29:30;102751.81;;;7.66;90.42
61506;BME280;47366;51.916;4.574;2022-11-13T01:31:55;102753.63;;;7.68;90.34
61506;BME280;47366;51.916;4.574;2022-11-13T01:34:21;102745.47;;;7.69;90.35
61506;BME280;47366;51.916;4.574;2022-11-13T01:36:46;102741.91;;;7.67;90.43
61506;BME280;47366;51.916;4.574;2022-11-13T01:39:11;102741.97;;;7.65;90.44
61506;BME280;47366;51.916;4.574;2022-11-13T01:41:37;102741.91;;;7.67;90.27
61506;BME280;47366;51.916;4.574;2022-11-13T01:44:02;102756.31;;;7.66;90.33
61506;BME280;47366;51.916;4.574;2022-11-13T01:46:31;102747.34;;;7.65;90.23
61506;BME280;47366;51.916;4.574;2022-11-13T01:51:39;102745.63;;;7.61;89.92
61506;BME280;47366;51.916;4.574;2022-11-13T01:54:30;102743.88;;;7.59;90.03
61506;BME280;47366;51.916;4.574;2022-11-13T01:56:57;102737.59;;;7.58;90.34
61506;BME280;47366;51.916;4.574;2022-11-13T01:59:26;102726.84;;;7.55;90.42
61506;BME280;47366;51.916;4.574;2022-11-13T02:01:54;102735.88;;;7.53;90.32
61506;BME280;47366;51.916;4.574;2022-11-13T02:04:20;102728.75;;;7.50;90.31
61506;BME280;47366;51.916;4.574;2022-11-13T02:06:50;102741.34;;;7.48;90.39
61506;BME280;47366;51.916;4.574;2022-11-13T02:09:23;102741.34;;;7.48;90.41
61506;BME280;47366;51.916;4.574;2022-11-13T02:11:49;102734.22;;;7.45;90.35
61506;BME280;47366;51.916;4.574;2022-11-13T02:14:17;102732.44;;;7.44;90.20
61506;BME280;47366;51.916;4.574;2022-11-13T02:16:46;102743.25;;;7.43;89.69
61506;BME280;47366;51.916;4.574;2022-11-13T02:19:25;102726.25;;;7.39;89.92
61506;BME280;47366;51.916;4.574;2022-11-13T02:24:56;102719.13;;;7.35;90.05
61506;BME280;47366;51.916;4.574;2022-11-13T02:27:26;102714.69;;;7.33;89.78
61506;BME280;47366;51.916;4.574;2022-11-13T02:29:54;102718.31;;;7.32;90.11
61506;BME280;47366;51.916;4.574;2022-11-13T02:32:19;102712.00;;;7.31;89.70
61506;BME280;47366;51.916;4.574;2022-11-13T02:34:45;102723.72;;;7.30;89.91
61506;BME280;47366;51.916;4.574;2022-11-13T02:37:10;102707.63;;;7.26;90.25
61506;BME280;47366;51.916;4.574;2022-11-13T02:39:35;102704.94;;;7.26;90.06
61506;BME280;47366;51.916;4.574;2022-11-13T02:42:01;102705.88;;;7.23;89.63
61506;BME280;47366;51.916;4.574;2022-11-13T02:44:27;102705.94;;;7.20;89.68
61506;BME280;47366;51.916;4.574;2022-11-13T02:46:52;102706.84;;;7.17;89.88
61506;BME280;47366;51.916;4.574;2022-11-13T02:49:17;102709.56;;;7.17;89.72
61506;BME280;47366;51.916;4.574;2022-11-13T02:51:43;102711.41;;;7.15;89.65
61506;BME280;47366;51.916;4.574;2022-11-13T02:54:08;102707.88;;;7.12;89.86
61506;BME280;47366;51.916;4.574;2022-11-13T02:56:33;102711.50;;;7.11;89.60
61506;BME280;47366;51.916;4.574;2022-11-13T02:58:58;102707.00;;;7.10;89.85
61506;BME280;47366;51.916;4.574;2022-11-13T03:01:24;102698.97;;;7.07;89.80
61506;BME280;47366;51.916;4.574;2022-11-13T03:03:49;102691.78;;;7.07;89.59
61506;BME280;47366;51.916;4.574;2022-11-13T03:06:14;102691.84;;;7.04;89.66
61506;BME280;47366;51.916;4.574;2022-11-13T03:08:40;102690.97;;;7.00;89.51
61506;BME280;47366;51.916;4.574;2022-11-13T03:11:09;102689.28;;;6.96;89.63
61506;BME280;47366;51.916;4.574;2022-11-13T03:13:36;102673.97;;;6.98;89.62
61506;BME280;47366;51.916;4.574;2022-11-13T03:16:12;102677.59;;;6.96;89.82
61506;BME280;47366;51.916;4.574;2022-11-13T03:18:38;102677.59;;;6.96;89.78
61506;BME280;47366;51.916;4.574;2022-11-13T03:21:11;102673.13;;;6.96;89.80
61506;BME280;47366;51.916;4.574;2022-11-13T03:23:38;102680.31;;;6.94;89.61
61506;BME280;47366;51.916;4.574;2022-11-13T03:26:06;102683.03;;;6.93;89.84
61506;BME280;47366;51.916;4.574;2022-11-13T03:28:32;102672.25;;;6.93;89.66
61506;BME280;47366;51.916;4.574;2022-11-13T03:30:58;102686.66;;;6.92;89.86
61506;BME280;47366;51.916;4.574;2022-11-13T03:33:24;102690.28;;;6.89;89.60
61506;BME280;47366;51.916;4.574;2022-11-13T03:35:49;102681.34;;;6.87;89.63
61506;BME280;47366;51.916;4.574;2022-11-13T03:38:14;102684.91;;;6.88;89.53
61506;BME280;47366;51.916;4.574;2022-11-13T03:40:41;102678.66;;;6.86;90.05
61506;BME280;47366;51.916;4.574;2022-11-13T03:43:06;102680.50;;;6.84;89.91
61506;BME280;47366;51.916;4.574;2022-11-13T03:45:31;102678.72;;;6.83;89.71
61506;BME280;47366;51.916;4.574;2022-11-13T03:47:57;102686.75;;;6.86;89.75
61506;BME280;47366;51.916;4.574;2022-11-13T03:50:22;102678.78;;;6.79;89.86
61506;BME280;47366;51.916;4.574;2022-11-13T03:52:47;102679.66;;;6.80;89.60
61506;BME280;47366;51.916;4.574;2022-11-13T03:55:13;102684.16;;;6.79;89.83
61506;BME280;47366;51.916;4.574;2022-11-13T03:57:38;102676.13;;;6.76;90.10
61506;BME280;47366;51.916;4.574;2022-11-13T04:00:04;102684.19;;;6.78;90.17
61506;BME280;47366;51.916;4.574;2022-11-13T04:02:30;102673.47;;;6.75;89.99
61506;BME280;47366;51.916;4.574;2022-11-13T04:04:55;102671.66;;;6.77;89.87
61506;BME280;47366;51.916;4.574;2022-11-13T04:07:20;102670.72;;;6.76;89.81
61506;BME280;47366;51.916;4.574;2022-11-13T04:09:46;102668.03;;;6.78;90.06
61506;BME280;47366;51.916;4.574;2022-11-13T04:12:11;102661.75;;;6.77;90.52
61506;BME280;47366;51.916;4.574;2022-11-13T04:14:36;102661.72;;;6.79;90.03
61506;BME280;47366;51.916;4.574;2022-11-13T04:17:01;102659.84;;;6.84;89.89
61506;BME280;47366;51.916;4.574;2022-11-13T04:19:27;102650.88;;;6.84;89.98
61506;BME280;47366;51.916;4.574;2022-11-13T04:21:52;102651.72;;;6.87;89.93
61506;BME280;47366;51.916;4.574;2022-11-13T04:24:17;102650.84;;;6.87;90.31
61506;BME280;47366;51.916;4.574;2022-11-13T04:26:43;102652.59;;;6.89;90.39
61506;BME280;47366;51.916;4.574;2022-11-13T04:29:08;102649.88;;;6.89;90.25
61506;BME280;47366;51.916;4.574;2022-11-13T04:31:33;102640.88;;;6.92;90.62
61506;BME280;47366;51.916;4.574;2022-11-13T04:33:59;102638.16;;;6.92;90.34
61506;BME280;47366;51.916;4.574;2022-11-13T04:36:24;102644.44;;;6.94;90.03
61506;BME280;47366;51.916;4.574;2022-11-13T04:38:50;102655.16;;;6.95;90.02
61506;BME280;47366;51.916;4.574;2022-11-13T04:41:15;102638.16;;;6.92;90.85
61506;BME280;47366;51.916;4.574;2022-11-13T04:43:59;102640.78;;;6.96;90.53
61506;BME280;47366;51.916;4.574;2022-11-13T04:46:24;102649.75;;;6.97;90.16
61506;BME280;47366;51.916;4.574;2022-11-13T04:48:49;102646.19;;;6.95;90.32
61506;BME280;47366;51.916;4.574;2022-11-13T04:51:15;102650.66;;;6.96;90.21
61506;BME280;47366;51.916;4.574;2022-11-13T04:53:40;102656.97;;;6.93;90.40
61506;BME280;47366;51.916;4.574;2022-11-13T04:56:05;102654.34;;;6.92;90.24
61506;BME280;47366;51.916;4.574;2022-11-13T04:58:31;102651.66;;;6.89;90.38
61506;BME280;47366;51.916;4.574;2022-11-13T05:00:56;102647.22;;;6.86;90.13
61506;BME280;47366;51.916;4.574;2022-11-13T05:03:21;102646.41;;;6.83;90.03
61506;BME280;47366;51.916;4.574;2022-11-13T05:05:47;102633.00;;;6.79;90.02
61506;BME280;47366;51.916;4.574;2022-11-13T05:08:12;102636.59;;;6.78;90.01
61506;BME280;47366;51.916;4.574;2022-11-13T05:10:37;102638.47;;;6.73;89.95
61506;BME280;47366;51.916;4.574;2022-11-13T05:13:03;102632.28;;;6.67;89.94
61506;BME280;47366;51.916;4.574;2022-11-13T05:15:28;102632.34;;;6.65;90.03
61506;BME280;47366;51.916;4.574;2022-11-13T05:17:53;102632.34;;;6.64;89.64
61506;BME280;47366;51.916;4.574;2022-11-13T05:20:19;102617.16;;;6.59;89.86
61506;BME280;47366;51.916;4.574;2022-11-13T05:22:44;102633.34;;;6.58;89.96
61506;BME280;47366;51.916;4.574;2022-11-13T05:25:09;102627.13;;;6.53;89.59
61506;BME280;47366;51.916;4.574;2022-11-13T05:27:35;102631.63;;;6.54;89.67
61506;BME280;47366;51.916;4.574;2022-11-13T05:30:00;102622.75;;;6.47;89.53
61506;BME280;47366;51.916;4.574;2022-11-13T05:32:25;102621.06;;;6.42;90.07
61506;BME280;47366;51.916;4.574;2022-11-13T05:34:51;102616.53;;;6.44;89.67
61506;BME280;47366;51.916;4.574;2022-11-13T05:37:16;102603.09;;;6.41;89.35
61506;BME280;47366;51.916;4.574;2022-11-13T05:39:41;102603.09;;;6.41;89.75
61506;BME280;47366;51.916;4.574;2022-11-13T05:42:06;102597.72;;;6.41;89.48
61506;BME280;47366;51.916;4.574;2022-11-13T05:44:32;102600.41;;;6.41;89.73
61506;BME280;47366;51.916;4.574;2022-11-13T05:46:57;102588.78;;;6.38;89.60
61506;BME280;47366;51.916;4.574;2022-11-13T05:49:22;102581.63;;;6.37;89.52
61506;BME280;47366;51.916;4.574;2022-11-13T05:51:48;102594.16;;;6.38;89.68
61506;BME280;47366;51.916;4.574;2022-11-13T05:54:13;102572.69;;;6.35;89.57
61506;BME280;47366;51.916;4.574;2022-11-13T05:56:38;102587.00;;;6.39;89.50
61506;BME280;47366;51.916;4.574;2022-11-13T05:59:04;102591.53;;;6.34;89.68
61506;BME280;47366;51.916;4.574;2022-11-13T06:01:35;102580.81;;;6.32;89.75
61506;BME280;47366;51.916;4.574;2022-11-13T06:04:01;102584.44;;;6.30;89.69
61506;BME280;47366;51.916;4.574;2022-11-13T06:06:28;102580.09;;;6.21;89.58
61506;BME280;47366;51.916;4.574;2022-11-13T06:08:55;102574.72;;;6.20;89.63
61506;BME280;47366;51.916;4.574;2022-11-13T06:11:24;102577.38;;;6.23;89.71
61506;BME280;47366;51.916;4.574;2022-11-13T06:13:50;102579.16;;;6.24;89.80
61506;BME280;47366;51.916;4.574;2022-11-13T06:16:33;102571.13;;;6.22;89.65
61506;BME280;47366;51.916;4.574;2022-11-13T06:19:00;102565.75;;;6.22;89.61
61506;BME280;47366;51.916;4.574;2022-11-13T06:21:28;102565.75;;;6.21;89.99
61506;BME280;47366;51.916;4.574;2022-11-13T06:23:55;102560.34;;;6.22;89.71
61506;BME280;47366;51.916;4.574;2022-11-13T06:26:23;102564.81;;;6.25;89.75
61506;BME280;47366;51.916;4.574;2022-11-13T06:28:49;102568.38;;;6.24;89.93
61506;BME280;47366;51.916;4.574;2022-11-13T06:31:23;102570.19;;;6.25;90.18
61506;BME280;47366;51.916;4.574;2022-11-13T06:33:49;102553.13;;;6.24;90.03
61506;BME280;47366;51.916;4.574;2022-11-13T06:36:19;102556.66;;;6.29;90.16
61506;BME280;47366;51.916;4.574;2022-11-13T06:38:45;102550.38;;;6.29;89.92
61506;BME280;47366;51.916;4.574;2022-11-13T06:41:13;102549.41;;;6.34;89.83
61506;BME280;47366;51.916;4.574;2022-11-13T06:43:39;102560.09;;;6.36;89.84
61506;BME280;47366;51.916;4.574;2022-11-13T06:46:20;102559.22;;;6.37;89.96
61506;BME280;47366;51.916;4.574;2022-11-13T06:48:46;102555.59;;;6.38;89.83
61506;BME280;47366;51.916;4.574;2022-11-13T06:51:14;102549.31;;;6.39;89.79
61506;BME280;47366;51.916;4.574;2022-11-13T06:53:40;102551.06;;;6.42;90.02
61506;BME280;47366;51.916;4.574;2022-11-13T06:56:05;102543.00;;;6.40;89.90
61506;BME280;47366;51.916;4.574;2022-11-13T06:58:32;102543.00;;;6.40;89.89
61506;BME280;47366;51.916;4.574;2022-11-13T07:00:57;102550.19;;;6.40;90.02
61506;BME280;47366;51.916;4.574;2022-11-13T07:03:25;102542.19;;;6.36;90.09
61506;BME280;47366;51.916;4.574;2022-11-13T07:05:51;102550.25;;;6.36;89.94
61506;BME280;47366;51.916;4.574;2022-11-13T07:08:17;102549.34;;;6.37;90.09
61506;BME280;47366;51.916;4.574;2022-11-13T07:10:42;102544.88;;;6.36;89.97
61506;BME280;47366;51.916;4.574;2022-11-13T07:13:08;102543.94;;;6.39;89.97
61506;BME280;47366;51.916;4.574;2022-11-13T07:15:38;102551.06;;;6.42;89.81
61506;BME280;47366;51.916;4.574;2022-11-13T07:18:04;102543.88;;;6.44;89.75
61506;BME280;47366;51.916;4.574;2022-11-13T07:20:31;102544.69;;;6.46;89.88
61506;BME280;47366;51.916;4.574;2022-11-13T07:22:58;102540.25;;;6.45;89.99
61506;BME280;47366;51.916;4.574;2022-11-13T07:25:24;102537.56;;;6.45;89.57
61506;BME280;47366;51.916;4.574;2022-11-13T07:27:50;102534.00;;;6.43;89.67
61506;BME280;47366;51.916;4.574;2022-11-13T07:30:16;102539.34;;;6.44;89.55
61506;BME280;47366;51.916;4.574;2022-11-13T07:32:41;102528.59;;;6.43;89.76
61506;BME280;47366;51.916;4.574;2022-11-13T07:35:07;102534.84;;;6.46;89.54
61506;BME280;47366;51.916;4.574;2022-11-13T07:37:32;102534.78;;;6.48;89.59
61506;BME280;47366;51.916;4.574;2022-11-13T07:39:58;102541.06;;;6.48;89.49
61506;BME280;47366;51.916;4.574;2022-11-13T07:42:23;102541.91;;;6.52;89.29
61506;BME280;47366;51.916;4.574;2022-11-13T07:44:48;102545.47;;;6.54;89.44
61506;BME280;47366;51.916;4.574;2022-11-13T07:47:14;102538.34;;;6.51;89.47
61506;BME280;47366;51.916;4.574;2022-11-13T07:49:39;102535.59;;;6.54;89.39
61506;BME280;47366;51.916;4.574;2022-11-13T07:52:04;102532.91;;;6.53;89.06
61506;BME280;47366;51.916;4.574;2022-11-13T07:54:29;102540.91;;;6.57;89.13
61506;BME280;47366;51.916;4.574;2022-11-13T07:56:55;102530.19;;;6.56;89.11
61506;BME280;47366;51.916;4.574;2022-11-13T07:59:20;102532.81;;;6.57;88.97
61506;BME280;47366;51.916;4.574;2022-11-13T08:01:45;102537.25;;;6.62;88.95
61506;BME280;47366;51.916;4.574;2022-11-13T08:04:11;102532.75;;;6.62;88.88
61506;BME280;47366;51.916;4.574;2022-11-13T08:06:37;102537.16;;;6.66;88.43
61506;BME280;47366;51.916;4.574;2022-11-13T08:09:03;102545.25;;;6.66;88.50
61506;BME280;47366;51.916;4.574;2022-11-13T08:11:28;102544.28;;;6.70;88.32
61506;BME280;47366;51.916;4.574;2022-11-13T08:13:53;102548.69;;;6.74;88.98
61506;BME280;47366;51.916;4.574;2022-11-13T08:16:19;102536.06;;;6.76;88.38
61506;BME280;47366;51.916;4.574;2022-11-13T08:18:44;102544.13;;;6.79;88.00
61506;BME280;47366;51.916;4.574;2022-11-13T08:21:10;102538.66;;;6.83;87.77
61506;BME280;47366;51.916;4.574;2022-11-13T08:23:35;102531.38;;;6.88;87.82
61506;BME280;47366;51.916;4.574;2022-11-13T08:26:04;102534.06;;;6.89;87.82
61506;BME280;47366;51.916;4.574;2022-11-13T08:28:31;102537.63;;;6.91;87.22
61506;BME280;47366;51.916;4.574;2022-11-13T08:30:57;102542.88;;;6.96;87.35
61506;BME280;47366;51.916;4.574;2022-11-13T08:33:23;102541.97;;;6.98;87.25
61506;BME280;47366;51.916;4.574;2022-11-13T08:35:56;102530.28;;;6.98;87.25
61506;BME280;47366;51.916;4.574;2022-11-13T08:38:22;102532.94;;;7.01;87.45
61506;BME280;47366;51.916;4.574;2022-11-13T08:40:48;102542.69;;;7.07;87.13
61506;BME280;47366;51.916;4.574;2022-11-13T08:43:13;102532.81;;;7.07;87.05
61506;BME280;47366;51.916;4.574;2022-11-13T08:45:39;102533.59;;;7.12;87.04
61506;BME280;47366;51.916;4.574;2022-11-13T08:48:04;102528.19;;;7.12;87.16
61506;BME280;47366;51.916;4.574;2022-11-13T08:50:32;102532.63;;;7.16;86.84
61506;BME280;47366;51.916;4.574;2022-11-13T08:52:59;102530.78;;;7.20;86.94
61506;BME280;47366;51.916;4.574;2022-11-13T08:55:25;102515.47;;;7.20;86.94
61506;BME280;47366;51.916;4.574;2022-11-13T08:57:51;102526.16;;;7.25;87.15
61506;BME280;47366;51.916;4.574;2022-11-13T09:00:17;102505.47;;;7.27;86.86
61506;BME280;47366;51.916;4.574;2022-11-13T09:02:42;102508.06;;;7.32;87.18
61506;BME280;47366;51.916;4.574;2022-11-13T09:05:08;102506.19;;;7.34;86.73
61506;BME280;47366;51.916;4.574;2022-11-13T09:07:33;102501.66;;;7.36;87.06
61506;BME280;47366;51.916;4.574;2022-11-13T09:09:59;102499.72;;;7.44;86.95
61506;BME280;47366;51.916;4.574;2022-11-13T09:12:24;102506.75;;;7.51;86.77
61506;BME280;47366;51.916;4.574;2022-11-13T09:14:49;102501.28;;;7.54;86.80
61506;BME280;47366;51.916;4.574;2022-11-13T09:17:15;102500.22;;;7.61;86.64
61506;BME280;47366;51.916;4.574;2022-11-13T09:19:41;102495.59;;;7.66;86.74
61506;BME280;47366;51.916;4.574;2022-11-13T09:22:06;102492.78;;;7.73;86.60
61506;BME280;47366;51.916;4.574;2022-11-13T09:24:31;102488.09;;;7.79;86.32
61506;BME280;47366;51.916;4.574;2022-11-13T09:26:57;102485.06;;;7.93;86.46
61506;BME280;47366;51.916;4.574;2022-11-13T09:29:22;102482.06;;;8.05;85.91
61506;BME280;47366;51.916;4.574;2022-11-13T09:31:48;102482.69;;;8.18;86.14
61506;BME280;47366;51.916;4.574;2022-11-13T09:34:14;102482.25;;;8.35;85.68
61506;BME280;47366;51.916;4.574;2022-11-13T09:36:39;102477.38;;;8.51;85.43
61506;BME280;47366;51.916;4.574;2022-11-13T09:39:05;102467.97;;;8.64;84.80
61506;BME280;47366;51.916;4.574;2022-11-13T09:41:38;102468.63;;;8.74;84.46
61506;BME280;47366;51.916;4.574;2022-11-13T09:44:11;102474.44;;;8.91;84.20
61506;BME280;47366;51.916;4.574;2022-11-13T09:46:50;102472.13;;;9.09;83.39
61506;BME280;47366;51.916;4.574;2022-11-13T09:49:22;102469.06;;;9.21;82.61
61506;BME280;47366;51.916;4.574;2022-11-13T09:51:52;102466.88;;;9.34;82.06
61506;BME280;47366;51.916;4.574;2022-11-13T09:54:19;102468.41;;;9.43;82.12
61506;BME280;47366;51.916;4.574;2022-11-13T09:56:56;102466.22;;;9.55;81.66
61506;BME280;47366;51.916;4.574;2022-11-13T09:59:34;102465.66;;;9.72;80.99
61506;BME280;47366;51.916;4.574;2022-11-13T10:05:14;102465.00;;;9.94;80.25
61506;BME280;47366;51.916;4.574;2022-11-13T10:10:36;102475.72;;;10.24;79.36
61506;BME280;47366;51.916;4.574;2022-11-13T10:13:10;102467.19;;;10.37;79.30
61506;BME280;47366;51.916;4.574;2022-11-13T10:15:37;102460.50;;;10.48;78.76
61506;BME280;47366;51.916;4.574;2022-11-13T10:18:10;102460.84;;;10.63;79.23
61506;BME280;47366;51.916;4.574;2022-11-13T10:20:45;102456.84;;;10.74;78.56
61506;BME280;47366;51.916;4.574;2022-11-13T10:23:16;102455.41;;;10.89;78.61
61506;BME280;47366;51.916;4.574;2022-11-13T10:25:43;102440.50;;;11.00;77.94
61506;BME280;47366;51.916;4.574;2022-11-13T10:28:20;102454.09;;;11.22;77.22
61506;BME280;47366;51.916;4.574;2022-11-13T10:30:48;102451.88;;;11.34;77.14
61506;BME280;47366;51.916;4.574;2022-11-13T10:33:17;102443.16;;;11.49;77.46
61506;BME280;47366;51.916;4.574;2022-11-13T10:35:52;102440.13;;;11.57;76.81
61506;BME280;47366;51.916;4.574;2022-11-13T10:38:27;102444.34;;;11.64;76.33
61506;BME280;47366;51.916;4.574;2022-11-13T10:41:04;102435.84;;;11.73;76.19
61506;BME280;47366;51.916;4.574;2022-11-13T10:43:31;102435.66;;;11.78;76.05
61506;BME280;47366;51.916;4.574;2022-11-13T10:46:02;102430.84;;;11.84;75.24
61506;BME280;47366;51.916;4.574;2022-11-13T10:48:33;102425.88;;;11.96;75.07
61506;BME280;47366;51.916;4.574;2022-11-13T10:51:15;102421.63;;;12.10;74.93
61506;BME280;47366;51.916;4.574;2022-11-13T10:53:41;102417.63;;;12.19;74.46
61506;BME280;47366;51.916;4.574;2022-11-13T10:56:30;102412.69;;;12.29;73.26
61506;BME280;47366;51.916;4.574;2022-11-13T10:59:11;102416.28;;;12.29;72.60
61506;BME280;47366;51.916;4.574;2022-11-13T11:01:38;102406.84;;;12.38;73.67
61506;BME280;47366;51.916;4.574;2022-11-13T11:04:05;102401.28;;;12.41;71.80
61506;BME280;47366;51.916;4.574;2022-11-13T11:06:36;102393.88;;;12.45;72.07
61506;BME280;47366;51.916;4.574;2022-11-13T11:09:19;102396.09;;;12.56;71.47
61506;BME280;47366;51.916;4.574;2022-11-13T11:12:10;102394.22;;;12.58;71.56
61506;BME280;47366;51.916;4.574;2022-11-13T11:17:32;102380.88;;;12.72;70.41
61506;BME280;47366;51.916;4.574;2022-11-13T11:22:33;102374.72;;;12.87;70.23
61506;BME280;47366;51.916;4.574;2022-11-13T11:25:05;102373.63;;;12.91;70.51
61506;BME280;47366;51.916;4.574;2022-11-13T11:30:17;102364.75;;;13.07;71.24
61506;BME280;47366;51.916;4.574;2022-11-13T11:32:45;102360.69;;;13.15;71.37
61506;BME280;47366;51.916;4.574;2022-11-13T11:35:31;102346.78;;;13.22;70.89
61506;BME280;47366;51.916;4.574;2022-11-13T11:38:14;102344.72;;;13.27;71.30
61506;BME280;47366;51.916;4.574;2022-11-13T11:40:42;102338.41;;;13.26;71.21
61506;BME280;47366;51.916;4.574;2022-11-13T11:45:59;102326.59;;;13.27;70.59
61506;BME280;47366;51.916;4.574;2022-11-13T11:48:30;102323.81;;;13.29;70.51
61506;BME280;47366;51.916;4.574;2022-11-13T11:56:34;102319.88;;;13.34;69.86
61506;BME280;47366;51.916;4.574;2022-11-13T12:04:46;102306.44;;;12.93;71.57
61506;BME280;47366;51.916;4.574;2022-11-13T12:07:48;102297.41;;;12.93;72.02
61506;BME280;47366;51.916;4.574;2022-11-13T12:13:28;102301.94;;;13.11;71.31
61506;BME280;47366;51.916;4.574;2022-11-13T12:16:18;102290.47;;;13.24;70.20
61506;BME280;47366;51.916;4.574;2022-11-13T12:19:02;102289.59;;;13.42;70.42
61506;BME280;47366;51.916;4.574;2022-11-13T12:24:33;102277.25;;;13.52;67.35
61506;BME280;47366;51.916;4.574;2022-11-13T12:30:13;102260.75;;;13.38;68.76
61506;BME280;47366;51.916;4.574;2022-11-13T12:35:24;102254.06;;;13.26;69.00
61506;BME280;47366;51.916;4.574;2022-11-13T12:40:43;102244.25;;;13.41;68.75
61506;BME280;47366;51.916;4.574;2022-11-13T12:43:28;102253.16;;;13.45;69.33
61506;BME280;47366;51.916;4.574;2022-11-13T12:46:08;102242.28;;;13.45;68.90
61506;BME280;47366;51.916;4.574;2022-11-13T12:48:37;102237.69;;;13.45;68.35
61506;BME280;47366;51.916;4.574;2022-11-13T12:51:08;102229.47;;;13.47;69.61
61506;BME280;47366;51.916;4.574;2022-11-13T13:01:46;102227.16;;;13.56;69.51
61506;BME280;47366;51.916;4.574;2022-11-13T13:04:33;102221.69;;;13.56;69.84
61506;BME280;47366;51.916;4.574;2022-11-13T13:10:04;102219.53;;;13.46;70.37
61506;BME280;47366;51.916;4.574;2022-11-13T13:12:53;102207.59;;;13.31;69.66
61506;BME280;47366;51.916;4.574;2022-11-13T13:15:26;102212.22;;;13.29;70.86
61506;BME280;47366;51.916;4.574;2022-11-13T13:18:22;102197.31;;;13.18;69.53
61506;BME280;47366;51.916;4.574;2022-11-13T13:21:07;102200.16;;;13.15;70.26
61506;BME280;47366;51.916;4.574;2022-11-13T13:26:05;102189.53;;;13.11;70.40
61506;BME280;47366;51.916;4.574;2022-11-13T13:28:31;102181.50;;;13.08;71.31
61506;BME280;47366;51.916;4.574;2022-11-13T13:31:13;102177.91;;;13.07;71.53
61506;BME280;47366;51.916;4.574;2022-11-13T13:34:03;102182.78;;;13.01;70.41
61506;BME280;47366;51.916;4.574;2022-11-13T13:36:41;102179.63;;;12.91;71.25
61506;BME280;47366;51.916;4.574;2022-11-13T13:39:14;102171.81;;;12.85;70.00
61506;BME280;47366;51.916;4.574;2022-11-13T13:46:56;102172.09;;;12.79;71.57
61506;BME280;47366;51.916;4.574;2022-11-13T13:49:23;102179.38;;;12.78;71.76
61506;BME280;47366;51.916;4.574;2022-11-13T13:51:53;102164.09;;;12.75;71.97
61506;BME280;47366;51.916;4.574;2022-11-13T13:54:25;102156.06;;;12.72;71.33
61506;BME280;47366;51.916;4.574;2022-11-13T13:56:53;102157.91;;;12.72;70.95
61506;BME280;47366;51.916;4.574;2022-11-13T13:59:29;102160.72;;;12.70;71.13
61506;BME280;47366;51.916;4.574;2022-11-13T14:01:58;102159.13;;;12.66;70.17
61506;BME280;47366;51.916;4.574;2022-11-13T14:04:28;102158.25;;;12.66;71.47
61506;BME280;47366;51.916;4.574;2022-11-13T14:06:58;102157.34;;;12.65;71.75
61506;BME280;47366;51.916;4.574;2022-11-13T14:09:26;102150.31;;;12.61;71.47
61506;BME280;47366;51.916;4.574;2022-11-13T14:14:27;102135.81;;;12.61;72.24